Southern Utah University
, Cedar City
Last Weather Update:02/23/2012 5:00:00 PM
Date
ETo
ETc
Rain
Irrigation
Req
Temp
Max
Temp
Min
Temp
Avg
Avg RH
Avg Wind
Avg Solar
inches
inches
incehs
inches
F
F
F
%
%
watts/m2
01/01/2012 0.05" 0.00" 0.00" 0.00" 47.5° 21.4° 31.9° 55.1% 2.1 MPH 118.3w/m2
01/02/2012 0.06" 0.00" 0.00" 0.00" 58.9° 25.1° 37.4° 47.3% 2.6 MPH 120.8w/m2
01/03/2012 0.07" 0.00" 0.00" 0.00" 60.0° 33.3° 44.0° 34.2% 2.9 MPH 119.3w/m2
01/04/2012 0.06" 0.00" 0.00" 0.00" 55.5° 29.0° 39.7° 42.9% 2.6 MPH 118.6w/m2
01/05/2012 0.07" 0.00" 0.00" 0.00" 60.4° 30.6° 42.8° 40.7% 3.1 MPH 114.3w/m2
01/06/2012 0.06" 0.00" 0.00" 0.00" 55.1° 30.9° 40.5° 44.4% 2.5 MPH 122.3w/m2
01/07/2012 0.03" 0.00" 0.01" -0.01" 44.2° 24.9° 32.6° 67.2% 5.0 MPH 60.6w/m2
01/08/2012 0.04" 0.00" 0.01" -0.01" 35.1° 19.0° 25.8° 77.0% 4.1 MPH 118.8w/m2
01/09/2012 0.03" 0.00" 0.00" 0.00" 42.5° 18.4° 27.8° 74.2% 1.5 MPH 114.9w/m2
01/10/2012 0.06" 0.00" 0.00" 0.00" 54.5° 23.2° 36.0° 64.1% 2.6 MPH 123.9w/m2
01/11/2012 0.05" 0.00" 0.00" 0.00" 37.4° 20.7° 28.8° 66.1% 4.5 MPH 127.1w/m2
01/12/2012 0.04" 0.00" 0.00" 0.00" 38.0° 18.2° 25.1° 63.2% 1.4 MPH 127.3w/m2
01/13/2012 0.05" 0.00" 0.00" 0.00" 45.0° 15.1° 27.5° 45.8% 2.7 MPH 129.6w/m2
01/14/2012 0.09" 0.00" 0.00" 0.00" 56.3° 23.4° 37.9° 30.0% 4.0 MPH 131.7w/m2
01/15/2012 0.09" 0.00" 0.00" 0.00" 50.8° 28.9° 40.4° 24.6% 7.2 MPH 104.2w/m2
01/16/2012 0.06" 0.00" 0.00" 0.00" 40.8° 15.1° 32.2° 52.6% 8.7 MPH 88.1w/m2
01/17/2012 0.06" 0.00" 0.00" 0.00" 42.1° 11.0° 25.0° 56.2% 3.2 MPH 134.9w/m2
01/18/2012 0.07" 0.00" 0.00" 0.00" 51.9° 23.9° 37.3° 37.8% 4.1 MPH 125.8w/m2
01/19/2012 0.06" 0.00" 0.00" 0.00" 51.1° 31.3° 41.3° 35.7% 3.4 MPH 86.7w/m2
01/20/2012 0.08" 0.00" 0.00" 0.00" 56.0° 30.9° 43.4° 32.9% 3.4 MPH 116.8w/m2
01/21/2012 0.05" 0.00" 0.09" -0.07" 52.5° 30.4° 40.3° 66.7% 10.4 MPH 47.5w/m2
01/22/2012 0.05" 0.00" 0.09" -0.07" 36.8° 20.1° 30.2° 71.4% 2.0 MPH 121.3w/m2
01/23/2012 0.02" 0.00" 0.00" 0.00" 41.4° 29.3° 32.8° 74.2% 3.4 MPH 31.6w/m2
01/24/2012 0.04" 0.00" 0.13" -0.10" 37.2° 22.0° 30.0° 83.4% 4.2 MPH 98.8w/m2
01/25/2012 0.05" 0.00" 0.00" 0.00" 48.1° 20.3° 33.4° 70.5% 2.0 MPH 142.5w/m2
01/26/2012 0.07" 0.00" 0.07" -0.06" 56.1° 28.8° 41.3° 66.1% 3.6 MPH 130.1w/m2
01/27/2012 0.06" 0.00" 0.01" -0.01" 39.6° 21.1° 32.4° 62.2% 5.0 MPH 155.0w/m2
01/28/2012 0.05" 0.00" 0.00" 0.00" 44.0° 14.5° 26.7° 53.8% 1.3 MPH 151.2w/m2
01/29/2012 0.06" 0.00" 0.00" 0.00" 49.1° 22.6° 33.8° 45.8% 2.2 MPH 126.6w/m2
01/30/2012 0.09" 0.00" 0.00" 0.00" 53.2° 27.5° 39.8° 34.9% 4.1 MPH 146.7w/m2
01/31/2012 0.07" 0.00" 0.00" 0.00" 53.3° 27.9° 37.6° 42.1% 2.4 MPH 151.9w/m2
Totals: 1.76" 0.00" 0.41" -0.33" 60.4° 11.0° 34.7° 53.6% 3.6 MPH 116.4w/m2